createdAt,value
2018-11-27T00:01:51.414Z,19.73
2018-11-27T00:04:20.882Z,17.20
2018-11-27T00:06:50.794Z,18.00
2018-11-27T00:09:20.297Z,18.67
2018-11-27T00:11:50.202Z,18.40
2018-11-27T00:14:19.462Z,18.97
2018-11-27T00:16:48.800Z,20.30
2018-11-27T00:19:18.984Z,17.37
2018-11-27T00:21:48.322Z,16.97
2018-11-27T00:24:18.264Z,20.65
2018-11-27T00:26:47.795Z,18.00
2018-11-27T00:29:17.330Z,17.80
2018-11-27T00:31:46.920Z,18.10
2018-11-27T00:34:16.372Z,19.30
2018-11-27T00:36:46.150Z,18.87
2018-11-27T00:39:15.583Z,19.15
2018-11-27T00:41:45.832Z,21.10
2018-11-27T00:44:15.278Z,17.52
2018-11-27T00:46:45.153Z,19.00
2018-11-27T00:49:14.424Z,18.73
2018-11-27T00:51:43.884Z,17.80
2018-11-27T00:54:13.764Z,18.87
2018-11-27T00:56:43.128Z,19.40
2018-11-27T00:59:13.269Z,17.83
2018-11-27T01:01:46.485Z,19.20
2018-11-27T01:04:16.199Z,17.60
2018-11-27T01:06:45.798Z,21.53
2018-11-27T01:09:15.943Z,17.10
2018-11-27T01:11:46.098Z,20.03
2018-11-27T01:14:17.083Z,20.00
2018-11-27T01:16:48.337Z,17.30
2018-11-27T01:19:19.602Z,20.12
2018-11-27T01:21:49.503Z,19.63
2018-11-27T01:24:19.065Z,17.33
2018-11-27T01:26:48.522Z,18.10
2018-11-27T01:29:18.163Z,17.80
2018-11-27T01:31:47.742Z,18.23
2018-11-27T01:34:17.128Z,17.42
2018-11-27T01:36:47.324Z,18.27
2018-11-27T01:39:18.447Z,17.03
2018-11-27T01:41:47.904Z,16.83
2018-11-27T01:44:17.227Z,18.00
2018-11-27T01:46:46.944Z,17.07
2018-11-27T01:49:17.198Z,20.17
2018-11-27T01:51:46.571Z,20.03
2018-11-27T01:54:16.624Z,17.63
2018-11-27T01:56:45.969Z,17.43
2018-11-27T01:59:15.659Z,16.93
2018-11-27T02:01:46.304Z,16.47
2018-11-27T02:04:15.592Z,17.67
2018-11-27T02:06:44.970Z,19.17
2018-11-27T02:09:14.477Z,16.63
2018-11-27T02:11:44.163Z,18.03
2018-11-27T02:14:13.495Z,16.50
2018-11-27T02:16:43.609Z,18.53
2018-11-27T02:19:13.137Z,16.90
2018-11-27T02:21:42.470Z,17.00
2018-11-27T02:24:13.137Z,17.43
2018-11-27T02:26:43.248Z,19.27
2018-11-27T02:29:13.645Z,19.23
2018-11-27T02:31:43.764Z,17.80
2018-11-27T02:34:13.293Z,18.77
2018-11-27T02:36:43.064Z,16.48
2018-11-27T02:39:12.540Z,16.83
2018-11-27T02:41:41.934Z,17.27
2018-11-27T02:44:12.113Z,16.33
2018-11-27T02:46:42.510Z,18.75
2018-11-27T02:49:12.185Z,17.98
2018-11-27T02:51:42.383Z,16.00
2018-11-27T02:54:11.832Z,16.80
2018-11-27T02:56:41.290Z,20.53
2018-11-27T02:59:10.930Z,17.33
2018-11-27T03:01:40.258Z,17.23
2018-11-27T03:04:10.394Z,18.47
2018-11-27T03:06:39.871Z,17.90
2018-11-27T03:09:09.943Z,17.20
2018-11-27T03:11:40.034Z,17.37
2018-11-27T03:14:09.411Z,18.80
2018-11-27T03:16:39.598Z,17.50
2018-11-27T03:19:09.818Z,15.95
2018-11-27T03:21:39.412Z,17.00
2018-11-27T03:24:09.135Z,18.70
2018-11-27T03:26:39.210Z,19.87
2018-11-27T03:29:08.523Z,18.10
2018-11-27T03:31:37.909Z,16.80
2018-11-27T03:34:07.414Z,16.93
2018-11-27T03:36:37.104Z,15.50
2018-11-27T03:39:10.270Z,16.50
2018-11-27T03:41:39.680Z,15.20
2018-11-27T03:44:09.819Z,16.67
2018-11-27T03:46:39.117Z,15.83
2018-11-27T03:49:09.338Z,17.43
2018-11-27T03:51:38.888Z,18.47
2018-11-27T03:54:08.565Z,17.03
2018-11-27T03:56:37.880Z,18.70
2018-11-27T03:59:08.294Z,17.65
2018-11-27T04:01:37.643Z,18.30
2018-11-27T04:04:10.034Z,15.10
2018-11-27T04:06:36.691Z,15.05
2018-11-27T04:09:08.651Z,15.67
2018-11-27T04:11:38.852Z,16.97
2018-11-27T04:14:08.190Z,15.83
2018-11-27T04:16:37.490Z,16.17
2018-11-27T04:19:07.436Z,18.30
2018-11-27T04:21:36.785Z,16.70
2018-11-27T04:24:06.986Z,15.57
2018-11-27T04:26:36.391Z,14.10
2018-11-27T04:29:06.411Z,15.13
2018-11-27T04:31:35.949Z,16.10
2018-11-27T04:34:05.706Z,16.73
2018-11-27T04:36:35.206Z,17.03
2018-11-27T04:39:07.192Z,14.27
2018-11-27T04:41:37.544Z,20.53
2018-11-27T04:44:07.486Z,16.37
2018-11-27T04:46:36.846Z,17.33
2018-11-27T04:49:07.353Z,18.40
2018-11-27T04:51:37.155Z,22.00
2018-11-27T04:54:06.759Z,23.60
2018-11-27T04:56:36.606Z,20.60
2018-11-27T04:59:06.498Z,19.10
2018-11-27T05:01:36.002Z,49.50
2018-11-27T05:04:06.310Z,30.60
2018-11-27T05:06:35.791Z,21.87
2018-11-27T05:09:09.776Z,24.25
2018-11-27T05:11:39.770Z,24.53
2018-11-27T05:14:09.161Z,25.87
2018-11-27T05:16:39.209Z,29.43
2018-11-27T05:19:08.635Z,30.37
2018-11-27T05:21:38.194Z,32.20
2018-11-27T05:24:07.871Z,56.47
2018-11-27T05:26:37.176Z,33.80
2018-11-27T05:29:07.273Z,37.00
2018-11-27T05:31:36.534Z,35.53
2018-11-27T05:34:06.562Z,36.87
2018-11-27T05:36:36.070Z,34.77
2018-11-27T05:39:09.065Z,43.10
2018-11-27T05:41:38.555Z,40.40
2018-11-27T05:44:08.866Z,39.10
2018-11-27T05:46:38.249Z,37.03
2018-11-27T05:49:07.776Z,41.37
2018-11-27T05:51:37.106Z,39.15
2018-11-27T05:54:06.511Z,35.63
2018-11-27T05:56:36.466Z,32.80
2018-11-27T05:59:06.236Z,44.00
2018-11-27T06:01:35.832Z,43.10
2018-11-27T06:04:05.218Z,37.10
2018-11-27T06:06:34.920Z,31.30
2018-11-27T06:09:07.111Z,36.83
2018-11-27T06:11:36.735Z,37.87
2018-11-27T06:14:06.935Z,33.77
2018-11-27T06:16:36.490Z,36.60
2018-11-27T06:19:05.981Z,36.03
2018-11-27T06:21:35.664Z,46.00
2018-11-27T06:24:05.604Z,35.40
2018-11-27T06:26:34.943Z,34.77
2018-11-27T06:29:05.485Z,37.20
2018-11-27T06:31:35.433Z,32.93
2018-11-27T06:34:04.765Z,34.25
2018-11-27T06:36:34.170Z,32.57
2018-11-27T06:39:05.150Z,32.28
2018-11-27T06:41:34.786Z,35.03
2018-11-27T06:44:04.376Z,33.83
2018-11-27T06:46:33.759Z,33.97
2018-11-27T06:49:03.638Z,36.50
2018-11-27T06:51:33.135Z,35.73
2018-11-27T06:54:03.216Z,34.27
2018-11-27T06:56:32.590Z,34.20
2018-11-27T06:59:01.975Z,29.27
2018-11-27T07:01:31.479Z,32.43
2018-11-27T07:04:01.170Z,34.70
2018-11-27T07:06:30.516Z,33.57
2018-11-27T07:09:00.723Z,33.60
2018-11-27T07:11:30.273Z,29.20
2018-11-27T07:13:59.841Z,35.80
2018-11-27T07:16:29.244Z,33.23
2018-11-27T07:18:58.621Z,43.73
2018-11-27T07:21:29.363Z,41.87
2018-11-27T07:23:59.425Z,41.00
2018-11-27T07:26:28.954Z,34.20
2018-11-27T07:28:58.431Z,32.73
2018-11-27T07:31:28.409Z,33.30
2018-11-27T07:33:57.850Z,29.40
2018-11-27T07:36:27.430Z,29.90
2018-11-27T07:38:56.974Z,24.27
2018-11-27T07:41:26.500Z,27.22
2018-11-27T07:43:56.375Z,25.90
2018-11-27T07:46:25.850Z,27.23
2018-11-27T07:48:55.786Z,27.03
2018-11-27T07:51:26.014Z,26.53
2018-11-27T07:53:55.460Z,26.52
2018-11-27T07:56:25.616Z,29.65
2018-11-27T07:58:56.747Z,29.15
2018-11-27T08:01:26.547Z,26.47
2018-11-27T08:03:56.176Z,28.07
2018-11-27T08:06:26.547Z,30.60
2018-11-27T08:08:57.495Z,27.05
2018-11-27T08:11:27.085Z,27.23
2018-11-27T08:13:56.955Z,32.95
2018-11-27T08:16:26.688Z,35.80
2018-11-27T08:18:56.641Z,30.13
2018-11-27T08:21:26.479Z,67.83
2018-11-27T08:23:56.740Z,52.83
2018-11-27T08:26:26.469Z,67.07
2018-11-27T08:28:56.394Z,36.10
2018-11-27T08:31:26.550Z,35.37
2018-11-27T08:33:56.660Z,41.43
2018-11-27T08:36:26.758Z,67.73
2018-11-27T08:38:56.571Z,53.50
2018-11-27T08:41:26.320Z,41.57
2018-11-27T08:43:56.319Z,73.87
2018-11-27T08:46:26.768Z,92.40
2018-11-27T08:48:57.152Z,76.40
2018-11-27T08:51:26.905Z,53.77
2018-11-27T08:53:57.069Z,66.10
2018-11-27T08:56:27.477Z,66.13
2018-11-27T08:58:57.510Z,45.20
2018-11-27T09:01:27.880Z,41.10
2018-11-27T09:03:57.985Z,60.03
2018-11-27T09:06:28.800Z,53.63
2018-11-27T09:08:58.617Z,62.10
2018-11-27T09:11:28.251Z,55.10
2018-11-27T09:13:59.286Z,56.90
2018-11-27T09:16:29.590Z,56.37
2018-11-27T09:18:59.753Z,43.77
2018-11-27T09:21:29.620Z,30.17
2018-11-27T09:23:59.582Z,35.40
2018-11-27T09:26:29.615Z,33.93
2018-11-27T09:29:00.014Z,35.87
2018-11-27T09:31:30.106Z,38.90
2018-11-27T09:34:00.582Z,36.13
2018-11-27T09:36:31.131Z,36.20
2018-11-27T09:39:00.856Z,50.23
2018-11-27T09:41:31.116Z,39.40
2018-11-27T09:44:01.385Z,38.28
2018-11-27T09:46:31.486Z,36.20
2018-11-27T09:49:01.711Z,40.07
2018-11-27T09:51:31.316Z,37.50
2018-11-27T09:54:02.054Z,38.43
2018-11-27T09:56:32.260Z,34.97
2018-11-27T09:59:02.490Z,35.53
2018-11-27T10:01:32.759Z,41.47
2018-11-27T10:04:02.847Z,42.63
2018-11-27T10:06:33.112Z,41.10
2018-11-27T10:09:03.380Z,32.23
2018-11-27T10:11:34.283Z,63.30
2018-11-27T10:14:04.369Z,48.17
2018-11-27T10:16:34.904Z,42.62
2018-11-27T10:19:06.027Z,33.80
2018-11-27T10:21:36.021Z,32.23
2018-11-27T10:24:06.078Z,36.70
2018-11-27T10:26:36.308Z,41.10
2018-11-27T10:29:06.326Z,37.97
2018-11-27T10:31:35.752Z,33.80
2018-11-27T10:34:05.931Z,36.73
2018-11-27T10:36:35.583Z,40.07
2018-11-27T10:39:07.309Z,51.73
2018-11-27T10:41:36.736Z,46.17
2018-11-27T10:44:07.029Z,40.10
2018-11-27T10:46:37.311Z,37.50
2018-11-27T10:49:08.113Z,39.87
2018-11-27T10:51:38.395Z,34.53
2018-11-27T10:54:07.901Z,34.80
2018-11-27T10:56:37.688Z,37.03
2018-11-27T10:59:08.002Z,38.03
2018-11-27T11:01:43.010Z,39.33
2018-11-27T11:04:13.287Z,33.53
2018-11-27T11:06:42.727Z,34.17
2018-11-27T11:09:12.606Z,34.70
2018-11-27T11:11:42.115Z,32.27
2018-11-27T11:14:12.426Z,35.77
2018-11-27T11:16:42.351Z,32.57
2018-11-27T11:19:12.433Z,33.53
2018-11-27T11:21:41.971Z,27.73
2018-11-27T11:24:11.368Z,36.03
2018-11-27T11:26:41.255Z,32.53
2018-11-27T11:29:11.302Z,32.57
2018-11-27T11:31:41.487Z,30.52
2018-11-27T11:34:10.783Z,34.80
2018-11-27T11:36:40.037Z,32.73
2018-11-27T11:39:11.050Z,32.33
2018-11-27T11:41:41.313Z,28.40
2018-11-27T11:44:10.858Z,26.80
2018-11-27T11:46:40.386Z,28.03
2018-11-27T11:49:09.891Z,24.70
2018-11-27T11:51:40.184Z,23.47
2018-11-27T11:54:09.639Z,30.90
2018-11-27T11:56:39.152Z,28.03
2018-11-27T11:59:09.574Z,27.47
2018-11-27T12:01:39.048Z,27.57
2018-11-27T12:04:08.578Z,29.43
2018-11-27T12:06:38.416Z,89.55
2018-11-27T12:09:09.484Z,34.78
2018-11-27T12:11:38.942Z,34.13
2018-11-27T12:14:09.019Z,39.97
2018-11-27T12:16:39.154Z,30.47
2018-11-27T12:19:08.590Z,31.35
2018-11-27T12:21:39.641Z,31.10
2018-11-27T12:24:09.797Z,34.80
2018-11-27T12:26:39.909Z,32.97
2018-11-27T12:29:09.323Z,34.70
2018-11-27T12:31:39.412Z,32.42
2018-11-27T12:34:08.939Z,32.90
2018-11-27T12:36:38.632Z,39.97
2018-11-27T12:39:08.938Z,33.83
2018-11-27T12:41:38.228Z,32.05
2018-11-27T12:44:07.701Z,35.48
2018-11-27T12:46:37.592Z,32.87
2018-11-27T12:49:07.154Z,31.05
2018-11-27T12:51:37.372Z,31.13
2018-11-27T12:54:07.373Z,27.73
2018-11-27T12:56:37.459Z,26.90
2018-11-27T12:59:08.716Z,30.03
2018-11-27T13:01:38.521Z,22.60
2018-11-27T13:04:08.347Z,29.03
2018-11-27T13:06:38.550Z,26.23
2018-11-27T13:09:10.768Z,25.57
2018-11-27T13:11:40.736Z,23.80
2018-11-27T13:14:10.904Z,26.40
2018-11-27T13:16:41.148Z,23.57
2018-11-27T13:19:11.443Z,28.63
2018-11-27T13:21:41.648Z,27.93
2018-11-27T13:24:15.568Z,23.83
2018-11-27T13:26:45.675Z,24.65
2018-11-27T13:29:15.578Z,29.63
2018-11-27T13:31:46.253Z,32.78
2018-11-27T13:34:16.664Z,31.57
2018-11-27T13:36:46.587Z,23.45
2018-11-27T13:39:27.427Z,24.10
2018-11-27T13:41:57.166Z,24.67
2018-11-27T13:44:27.004Z,25.70
2018-11-27T13:46:56.914Z,35.07
2018-11-27T13:49:27.784Z,48.30
2018-11-27T13:51:56.198Z,44.15
2018-11-27T13:54:25.873Z,40.23
2018-11-27T13:56:56.789Z,33.90
2018-11-27T13:59:27.090Z,27.30
2018-11-27T14:01:56.989Z,50.40
2018-11-27T14:04:26.742Z,70.40
2018-11-27T14:06:57.252Z,41.15
2018-11-27T14:09:27.077Z,33.80
2018-11-27T14:11:58.259Z,36.80
2018-11-27T14:14:28.568Z,37.27
2018-11-27T14:16:58.509Z,38.23
2018-11-27T14:19:28.291Z,37.23
2018-11-27T14:21:58.002Z,38.20
2018-11-27T14:24:28.039Z,30.00
2018-11-27T14:26:58.394Z,58.90
2018-11-27T14:29:28.528Z,44.98
2018-11-27T14:31:58.977Z,43.27
2018-11-27T14:34:29.038Z,49.00
2018-11-27T14:36:59.166Z,23.00
2018-11-27T14:39:32.529Z,25.10
2018-11-27T14:42:02.550Z,31.73
2018-11-27T14:44:32.637Z,35.83
2018-11-27T14:47:02.601Z,54.43
2018-11-27T14:49:33.436Z,72.10
2018-11-27T14:52:04.039Z,55.98
2018-11-27T14:54:33.884Z,34.50
2018-11-27T14:57:04.687Z,26.13
2018-11-27T14:59:34.579Z,26.67
2018-11-27T15:02:04.944Z,27.45
2018-11-27T15:04:34.702Z,26.17
2018-11-27T15:07:04.503Z,26.12
2018-11-27T15:09:34.693Z,26.23
2018-11-27T15:12:05.019Z,27.62
2018-11-27T15:14:35.031Z,27.03
2018-11-27T15:17:05.226Z,28.23
2018-11-27T15:19:35.324Z,23.97
2018-11-27T15:22:05.549Z,25.20
2018-11-27T15:24:35.029Z,25.40
2018-11-27T15:27:04.720Z,28.00
2018-11-27T15:29:34.250Z,28.90
2018-11-27T15:32:03.747Z,25.40
2018-11-27T15:34:33.618Z,28.70
2018-11-27T15:37:03.944Z,24.70
2018-11-27T15:39:34.014Z,24.20
2018-11-27T15:42:04.308Z,29.00
2018-11-27T15:44:34.004Z,24.00
2018-11-27T15:47:03.628Z,27.22
2018-11-27T15:49:33.937Z,26.33
2018-11-27T15:52:03.384Z,72.20
2018-11-27T15:54:33.181Z,30.52
2018-11-27T15:57:02.659Z,29.42
2018-11-27T15:59:32.628Z,33.90
2018-11-27T16:02:02.032Z,26.30
2018-11-27T16:04:32.089Z,26.83
2018-11-27T16:07:02.565Z,25.63
2018-11-27T16:09:32.139Z,22.73
2018-11-27T16:12:02.189Z,25.90
2018-11-27T16:14:32.234Z,26.53
2018-11-27T16:17:01.815Z,28.30
2018-11-27T16:19:31.531Z,23.57
2018-11-27T16:22:01.260Z,27.03
2018-11-27T16:24:30.896Z,21.53
2018-11-27T16:27:00.931Z,23.47
2018-11-27T16:29:31.340Z,22.65
2018-11-27T16:32:01.550Z,24.23
2018-11-27T16:34:31.584Z,74.00
2018-11-27T16:37:02.005Z,28.80
2018-11-27T16:39:32.130Z,24.00
2018-11-27T16:42:03.051Z,23.03
2018-11-27T16:44:33.294Z,20.30
2018-11-27T16:47:03.776Z,24.40
2018-11-27T16:49:33.396Z,25.20
2018-11-27T16:52:04.019Z,24.80
2018-11-27T16:54:34.041Z,21.40
2018-11-27T16:57:03.911Z,30.77
2018-11-27T16:59:33.689Z,30.33
2018-11-27T17:02:03.684Z,25.67
2018-11-27T17:04:33.964Z,24.37
2018-11-27T17:07:04.335Z,25.23
2018-11-27T17:09:35.546Z,23.93
2018-11-27T17:12:06.701Z,26.80
2018-11-27T17:14:36.785Z,30.33
2018-11-27T17:17:06.830Z,27.80
2018-11-27T17:19:36.977Z,19.17
2018-11-27T17:22:08.149Z,21.80
2018-11-27T17:24:37.616Z,22.53
2018-11-27T17:27:07.669Z,21.33
2018-11-27T17:29:37.480Z,25.00
2018-11-27T17:32:07.374Z,24.90
2018-11-27T17:34:37.249Z,24.63
2018-11-27T17:37:07.592Z,17.87
2018-11-27T17:39:38.678Z,21.80
2018-11-27T17:42:08.922Z,23.30
2018-11-27T17:44:39.415Z,25.35
2018-11-27T17:47:09.235Z,23.20
2018-11-27T17:49:38.693Z,26.13
2018-11-27T17:52:08.893Z,30.70
2018-11-27T17:54:38.785Z,26.30
2018-11-27T17:57:09.503Z,25.37
2018-11-27T17:59:39.271Z,28.30
2018-11-27T18:02:08.695Z,21.55
2018-11-27T18:04:38.593Z,22.97
2018-11-27T18:07:08.812Z,28.30
2018-11-27T18:09:38.444Z,26.97
2018-11-27T18:12:08.249Z,24.25
2018-11-27T18:14:38.477Z,27.97
2018-11-27T18:17:07.837Z,26.10
2018-11-27T18:19:37.489Z,22.57
2018-11-27T18:22:07.696Z,24.03
2018-11-27T18:24:38.484Z,25.63
2018-11-27T18:27:07.569Z,25.30
2018-11-27T18:29:37.747Z,27.23
2018-11-27T18:32:07.631Z,26.73
2018-11-27T18:34:37.182Z,30.05
2018-11-27T18:37:07.292Z,24.52
2018-11-27T18:39:37.527Z,24.82
2018-11-27T18:42:07.716Z,23.93
2018-11-27T18:44:37.237Z,26.30
2018-11-27T18:47:07.135Z,25.80
2018-11-27T18:49:37.514Z,23.63
2018-11-27T18:52:07.506Z,25.43
2018-11-27T18:54:36.990Z,27.35
2018-11-27T18:57:07.136Z,28.40
2018-11-27T18:59:37.001Z,23.70
2018-11-27T19:02:07.131Z,27.62
2018-11-27T19:04:36.782Z,23.70
2018-11-27T19:08:30.864Z,25.70
2018-11-27T19:11:00.940Z,22.83
2018-11-27T19:13:30.806Z,25.07
2018-11-27T19:16:01.561Z,28.37
2018-11-27T19:18:31.521Z,24.77
2018-11-27T19:21:02.431Z,23.43
2018-11-27T19:23:32.439Z,28.97
2018-11-27T19:26:03.551Z,32.50
2018-11-27T19:28:33.615Z,25.33
2018-11-27T19:31:04.886Z,24.03
2018-11-27T19:33:35.790Z,24.47
2018-11-27T19:36:07.260Z,33.42
2018-11-27T19:38:38.025Z,27.50
2018-11-27T19:41:08.892Z,29.83
2018-11-27T19:43:40.366Z,27.83
2018-11-27T19:46:12.533Z,30.27
2018-11-27T19:48:43.725Z,26.07
2018-11-27T19:51:15.174Z,23.73
2018-11-27T19:53:46.089Z,28.10
2018-11-27T19:56:17.338Z,26.40
2018-11-27T19:58:48.245Z,26.13
2018-11-27T20:01:18.739Z,26.33
2018-11-27T20:03:48.756Z,27.17
2018-11-27T20:06:20.465Z,24.77
2018-11-27T20:08:50.411Z,23.03
2018-11-27T20:11:22.308Z,23.87
2018-11-27T20:13:52.540Z,26.45
2018-11-27T20:16:23.676Z,24.77
2018-11-27T20:18:54.997Z,25.70
2018-11-27T20:21:25.761Z,27.40
2018-11-27T20:23:56.455Z,30.13
2018-11-27T20:26:27.641Z,27.30
2018-11-27T20:28:57.905Z,30.63
2018-11-27T20:31:28.446Z,27.70
2018-11-27T20:33:58.823Z,25.53
2018-11-27T20:36:30.326Z,28.30
2018-11-27T20:39:00.766Z,25.37
2018-11-27T20:41:32.425Z,28.57
2018-11-27T20:44:02.940Z,19.53
2018-11-27T20:46:33.677Z,19.57
2018-11-27T20:49:04.661Z,26.57
2018-11-27T20:51:35.115Z,24.90
2018-11-27T20:54:04.844Z,23.53
2018-11-27T20:56:34.652Z,30.03
2018-11-27T20:59:04.824Z,23.67
2018-11-27T21:01:34.847Z,24.60
2018-11-27T21:04:05.246Z,28.03
2018-11-27T21:06:35.257Z,25.97
2018-11-27T21:09:05.506Z,25.63
2018-11-27T21:11:35.554Z,27.60
2018-11-27T21:14:05.808Z,26.07
2018-11-27T21:16:35.936Z,24.13
2018-11-27T21:19:06.372Z,21.93
2018-11-27T21:21:36.296Z,18.03
2018-11-27T21:24:07.455Z,22.43
2018-11-27T21:26:37.857Z,24.70
2018-11-27T21:29:08.207Z,27.80
2018-11-27T21:31:41.148Z,22.17
2018-11-27T21:34:11.101Z,21.97
2018-11-27T21:36:40.645Z,29.27
2018-11-27T21:39:10.865Z,24.63
2018-11-27T21:41:40.862Z,27.90
2018-11-27T21:44:11.190Z,26.37
2018-11-27T21:46:43.176Z,24.60
2018-11-27T21:49:12.909Z,30.63
2018-11-27T21:51:42.702Z,24.72
2018-11-27T21:54:12.151Z,24.70
2018-11-27T21:56:42.946Z,25.03
2018-11-27T21:59:13.275Z,28.23
2018-11-27T22:01:42.744Z,29.23
2018-11-27T22:04:12.200Z,20.47
2018-11-27T22:06:41.908Z,28.47
2018-11-27T22:09:12.281Z,31.20
2018-11-27T22:11:41.830Z,22.98
2018-11-27T22:14:11.488Z,24.32
2018-11-27T22:16:41.861Z,32.35
2018-11-27T22:19:12.100Z,27.67
2018-11-27T22:21:42.241Z,24.07
2018-11-27T22:24:11.727Z,19.00
2018-11-27T22:26:41.678Z,23.93
2018-11-27T22:29:11.731Z,27.23
2018-11-27T22:31:41.239Z,30.03
2018-11-27T22:34:11.043Z,26.47
2018-11-27T22:36:41.407Z,27.30
2018-11-27T22:39:10.730Z,30.23
2018-11-27T22:41:41.141Z,22.77
2018-11-27T22:44:11.027Z,28.63
2018-11-27T22:46:40.532Z,25.48
2018-11-27T22:49:10.427Z,25.73
2018-11-27T22:51:39.889Z,25.50
2018-11-27T22:54:09.756Z,30.33
2018-11-27T22:56:39.170Z,27.30
2018-11-27T22:59:08.756Z,25.03
2018-11-27T23:01:39.919Z,30.00
2018-11-27T23:04:09.542Z,24.93
2018-11-27T23:06:39.847Z,23.43
2018-11-27T23:09:10.047Z,30.67
2018-11-27T23:11:39.605Z,35.10
2018-11-27T23:14:09.555Z,39.20
2018-11-27T23:16:39.561Z,26.83
2018-11-27T23:19:08.929Z,37.93
2018-11-27T23:21:38.275Z,27.37
2018-11-27T23:24:07.792Z,26.50
2018-11-27T23:26:37.103Z,30.80
2018-11-27T23:29:06.886Z,31.20
2018-11-27T23:31:37.718Z,40.53
2018-11-27T23:34:07.089Z,31.60
2018-11-27T23:36:36.623Z,36.37
2018-11-27T23:39:08.482Z,32.93
2018-11-27T23:41:37.847Z,23.45
2018-11-27T23:44:07.869Z,27.13
2018-11-27T23:46:37.415Z,28.27
2018-11-27T23:49:07.384Z,28.67
2018-11-27T23:51:37.607Z,31.53
2018-11-27T23:54:07.864Z,27.13
2018-11-27T23:56:38.062Z,35.53
2018-11-27T23:59:08.324Z,36.07
